sensor_id;sensor_type;location;lat;lon;timestamp;P1;durP1;ratioP1;P2;durP2;ratioP2
14381;SDS011;7275;50.328;8.720;2023-05-21T00:01:31;8.00;;;7.20;;
14381;SDS011;7275;50.328;8.720;2023-05-21T00:03:58;8.83;;;8.03;;
14381;SDS011;7275;50.328;8.720;2023-05-21T00:06:26;9.27;;;7.97;;
14381;SDS011;7275;50.328;8.720;2023-05-21T00:08:53;9.60;;;8.03;;
14381;SDS011;7275;50.328;8.720;2023-05-21T00:11:21;9.47;;;8.23;;
14381;SDS011;7275;50.328;8.720;2023-05-21T00:13:49;13.60;;;7.97;;
14381;SDS011;7275;50.328;8.720;2023-05-21T00:16:18;8.67;;;7.87;;
14381;SDS011;7275;50.328;8.720;2023-05-21T00:18:45;9.23;;;8.17;;
14381;SDS011;7275;50.328;8.720;2023-05-21T00:21:14;8.63;;;7.70;;
14381;SDS011;7275;50.328;8.720;2023-05-21T00:23:43;9.03;;;8.13;;
14381;SDS011;7275;50.328;8.720;2023-05-21T00:26:13;8.53;;;7.57;;
14381;SDS011;7275;50.328;8.720;2023-05-21T00:28:40;8.93;;;8.03;;
14381;SDS011;7275;50.328;8.720;2023-05-21T00:31:08;9.43;;;8.33;;
14381;SDS011;7275;50.328;8.720;2023-05-21T00:33:37;9.53;;;7.97;;
14381;SDS011;7275;50.328;8.720;2023-05-21T00:36:05;8.40;;;7.60;;
14381;SDS011;7275;50.328;8.720;2023-05-21T00:38:33;8.73;;;7.83;;
14381;SDS011;7275;50.328;8.720;2023-05-21T00:41:03;8.80;;;7.90;;
14381;SDS011;7275;50.328;8.720;2023-05-21T00:43:31;8.30;;;7.50;;
14381;SDS011;7275;50.328;8.720;2023-05-21T00:45:59;8.50;;;7.60;;
14381;SDS011;7275;50.328;8.720;2023-05-21T00:48:26;8.23;;;7.43;;
14381;SDS011;7275;50.328;8.720;2023-05-21T00:50:55;9.40;;;7.77;;
14381;SDS011;7275;50.328;8.720;2023-05-21T00:53:23;8.50;;;7.70;;
14381;SDS011;7275;50.328;8.720;2023-05-21T00:55:50;9.27;;;8.27;;
14381;SDS011;7275;50.328;8.720;2023-05-21T00:58:18;8.83;;;7.93;;
14381;SDS011;7275;50.328;8.720;2023-05-21T01:00:46;9.90;;;8.60;;
14381;SDS011;7275;50.328;8.720;2023-05-21T01:03:13;8.63;;;7.80;;
14381;SDS011;7275;50.328;8.720;2023-05-21T01:05:42;8.33;;;7.43;;
14381;SDS011;7275;50.328;8.720;2023-05-21T01:08:11;8.73;;;7.83;;
14381;SDS011;7275;50.328;8.720;2023-05-21T01:10:40;8.83;;;7.93;;
14381;SDS011;7275;50.328;8.720;2023-05-21T01:13:07;8.33;;;7.47;;
14381;SDS011;7275;50.328;8.720;2023-05-21T01:15:36;8.50;;;7.70;;
14381;SDS011;7275;50.328;8.720;2023-05-21T01:18:04;8.90;;;7.70;;
14381;SDS011;7275;50.328;8.720;2023-05-21T01:20:32;8.67;;;7.77;;
14381;SDS011;7275;50.328;8.720;2023-05-21T01:23:01;8.60;;;7.60;;
14381;SDS011;7275;50.328;8.720;2023-05-21T01:25:29;10.80;;;7.90;;
14381;SDS011;7275;50.328;8.720;2023-05-21T01:27:57;8.50;;;7.57;;
14381;SDS011;7275;50.328;8.720;2023-05-21T01:30:24;8.57;;;7.77;;
14381;SDS011;7275;50.328;8.720;2023-05-21T01:32:54;9.10;;;7.70;;
14381;SDS011;7275;50.328;8.720;2023-05-21T01:35:28;8.53;;;7.70;;
14381;SDS011;7275;50.328;8.720;2023-05-21T01:38:00;9.10;;;7.60;;
14381;SDS011;7275;50.328;8.720;2023-05-21T01:40:38;8.07;;;7.27;;
14381;SDS011;7275;50.328;8.720;2023-05-21T01:43:09;8.43;;;7.63;;
14381;SDS011;7275;50.328;8.720;2023-05-21T01:45:39;9.00;;;8.10;;
14381;SDS011;7275;50.328;8.720;2023-05-21T01:48:08;8.97;;;8.07;;
14381;SDS011;7275;50.328;8.720;2023-05-21T01:50:38;9.27;;;8.03;;
14381;SDS011;7275;50.328;8.720;2023-05-21T01:53:08;9.70;;;7.33;;
14381;SDS011;7275;50.328;8.720;2023-05-21T01:55:36;8.90;;;8.00;;
14381;SDS011;7275;50.328;8.720;2023-05-21T01:58:07;9.03;;;8.13;;
14381;SDS011;7275;50.328;8.720;2023-05-21T02:00:35;9.37;;;8.40;;
14381;SDS011;7275;50.328;8.720;2023-05-21T02:03:02;9.07;;;8.10;;
14381;SDS011;7275;50.328;8.720;2023-05-21T02:05:30;9.43;;;8.53;;
14381;SDS011;7275;50.328;8.720;2023-05-21T02:07:58;9.13;;;8.30;;
14381;SDS011;7275;50.328;8.720;2023-05-21T02:10:27;8.73;;;7.80;;
14381;SDS011;7275;50.328;8.720;2023-05-21T02:12:55;9.00;;;8.10;;
14381;SDS011;7275;50.328;8.720;2023-05-21T02:15:24;9.03;;;8.13;;
14381;SDS011;7275;50.328;8.720;2023-05-21T02:17:52;8.97;;;8.07;;
14381;SDS011;7275;50.328;8.720;2023-05-21T02:20:21;9.53;;;8.63;;
14381;SDS011;7275;50.328;8.720;2023-05-21T02:22:49;9.03;;;8.13;;
14381;SDS011;7275;50.328;8.720;2023-05-21T02:25:17;9.60;;;8.60;;
14381;SDS011;7275;50.328;8.720;2023-05-21T02:27:49;9.47;;;8.40;;
14381;SDS011;7275;50.328;8.720;2023-05-21T02:30:19;9.40;;;8.37;;
14381;SDS011;7275;50.328;8.720;2023-05-21T02:32:47;9.83;;;8.77;;
14381;SDS011;7275;50.328;8.720;2023-05-21T02:35:15;10.10;;;8.47;;
14381;SDS011;7275;50.328;8.720;2023-05-21T02:37:43;8.93;;;8.03;;
14381;SDS011;7275;50.328;8.720;2023-05-21T02:40:11;9.60;;;8.50;;
14381;SDS011;7275;50.328;8.720;2023-05-21T02:42:39;10.33;;;9.07;;
14381;SDS011;7275;50.328;8.720;2023-05-21T02:45:09;9.77;;;8.77;;
14381;SDS011;7275;50.328;8.720;2023-05-21T02:47:38;10.20;;;8.50;;
14381;SDS011;7275;50.328;8.720;2023-05-21T02:50:06;10.13;;;8.90;;
14381;SDS011;7275;50.328;8.720;2023-05-21T02:52:34;9.23;;;8.33;;
14381;SDS011;7275;50.328;8.720;2023-05-21T02:55:02;10.00;;;8.83;;
14381;SDS011;7275;50.328;8.720;2023-05-21T02:57:30;9.43;;;8.43;;
14381;SDS011;7275;50.328;8.720;2023-05-21T02:59:58;9.80;;;8.80;;
14381;SDS011;7275;50.328;8.720;2023-05-21T03:02:27;9.87;;;8.77;;
14381;SDS011;7275;50.328;8.720;2023-05-21T03:04:55;9.47;;;8.47;;
14381;SDS011;7275;50.328;8.720;2023-05-21T03:07:23;9.63;;;8.63;;
14381;SDS011;7275;50.328;8.720;2023-05-21T03:09:51;8.80;;;7.97;;
14381;SDS011;7275;50.328;8.720;2023-05-21T03:12:18;10.43;;;9.00;;
14381;SDS011;7275;50.328;8.720;2023-05-21T03:14:47;9.47;;;8.43;;
14381;SDS011;7275;50.328;8.720;2023-05-21T03:17:16;9.50;;;8.60;;
14381;SDS011;7275;50.328;8.720;2023-05-21T03:19:45;11.40;;;8.83;;
14381;SDS011;7275;50.328;8.720;2023-05-21T03:22:14;9.67;;;8.73;;
14381;SDS011;7275;50.328;8.720;2023-05-21T03:24:41;10.20;;;8.97;;
14381;SDS011;7275;50.328;8.720;2023-05-21T03:27:10;10.07;;;9.07;;
14381;SDS011;7275;50.328;8.720;2023-05-21T03:29:37;9.53;;;8.60;;
14381;SDS011;7275;50.328;8.720;2023-05-21T03:32:06;9.60;;;8.60;;
14381;SDS011;7275;50.328;8.720;2023-05-21T03:34:33;9.20;;;8.30;;
14381;SDS011;7275;50.328;8.720;2023-05-21T03:37:02;9.80;;;8.60;;
14381;SDS011;7275;50.328;8.720;2023-05-21T03:39:30;9.57;;;8.63;;
14381;SDS011;7275;50.328;8.720;2023-05-21T03:41:58;9.60;;;8.60;;
14381;SDS011;7275;50.328;8.720;2023-05-21T03:44:25;9.87;;;8.87;;
14381;SDS011;7275;50.328;8.720;2023-05-21T03:46:53;9.03;;;8.17;;
14381;SDS011;7275;50.328;8.720;2023-05-21T03:49:20;9.47;;;8.53;;
14381;SDS011;7275;50.328;8.720;2023-05-21T03:51:48;10.33;;;8.80;;
14381;SDS011;7275;50.328;8.720;2023-05-21T03:54:17;9.47;;;8.57;;
14381;SDS011;7275;50.328;8.720;2023-05-21T03:56:44;9.53;;;8.53;;
14381;SDS011;7275;50.328;8.720;2023-05-21T03:59:12;9.40;;;8.43;;
14381;SDS011;7275;50.328;8.720;2023-05-21T04:01:40;9.70;;;8.70;;
14381;SDS011;7275;50.328;8.720;2023-05-21T04:04:07;10.30;;;9.23;;
14381;SDS011;7275;50.328;8.720;2023-05-21T04:06:35;10.10;;;9.13;;
14381;SDS011;7275;50.328;8.720;2023-05-21T04:09:03;9.57;;;8.37;;
14381;SDS011;7275;50.328;8.720;2023-05-21T04:11:32;9.63;;;8.70;;
14381;SDS011;7275;50.328;8.720;2023-05-21T04:13:59;9.87;;;8.87;;
14381;SDS011;7275;50.328;8.720;2023-05-21T04:16:28;9.97;;;8.97;;
14381;SDS011;7275;50.328;8.720;2023-05-21T04:18:55;9.07;;;8.20;;
14381;SDS011;7275;50.328;8.720;2023-05-21T04:21:23;9.93;;;8.93;;
14381;SDS011;7275;50.328;8.720;2023-05-21T04:23:50;9.47;;;8.57;;
14381;SDS011;7275;50.328;8.720;2023-05-21T04:26:19;10.97;;;9.27;;
14381;SDS011;7275;50.328;8.720;2023-05-21T04:28:47;9.47;;;8.57;;
14381;SDS011;7275;50.328;8.720;2023-05-21T04:31:16;9.50;;;8.60;;
14381;SDS011;7275;50.328;8.720;2023-05-21T04:33:44;9.83;;;8.83;;
14381;SDS011;7275;50.328;8.720;2023-05-21T04:36:11;10.17;;;9.17;;
14381;SDS011;7275;50.328;8.720;2023-05-21T04:38:42;10.17;;;9.10;;
14381;SDS011;7275;50.328;8.720;2023-05-21T04:41:09;9.63;;;8.70;;
14381;SDS011;7275;50.328;8.720;2023-05-21T04:43:37;10.20;;;8.73;;
14381;SDS011;7275;50.328;8.720;2023-05-21T04:46:10;9.73;;;8.77;;
14381;SDS011;7275;50.328;8.720;2023-05-21T04:48:37;9.70;;;8.77;;
14381;SDS011;7275;50.328;8.720;2023-05-21T04:51:06;10.37;;;9.27;;
14381;SDS011;7275;50.328;8.720;2023-05-21T04:53:33;10.10;;;9.10;;
14381;SDS011;7275;50.328;8.720;2023-05-21T04:56:01;10.13;;;8.80;;
14381;SDS011;7275;50.328;8.720;2023-05-21T04:58:29;10.73;;;9.23;;
14381;SDS011;7275;50.328;8.720;2023-05-21T05:00:58;10.17;;;9.27;;
14381;SDS011;7275;50.328;8.720;2023-05-21T05:03:29;10.07;;;9.00;;
14381;SDS011;7275;50.328;8.720;2023-05-21T05:05:57;9.87;;;8.93;;
14381;SDS011;7275;50.328;8.720;2023-05-21T05:08:24;12.23;;;8.97;;
14381;SDS011;7275;50.328;8.720;2023-05-21T05:10:52;10.03;;;9.07;;
14381;SDS011;7275;50.328;8.720;2023-05-21T05:13:19;10.17;;;8.83;;
14381;SDS011;7275;50.328;8.720;2023-05-21T05:15:47;9.87;;;8.87;;
14381;SDS011;7275;50.328;8.720;2023-05-21T05:18:16;10.43;;;9.43;;
14381;SDS011;7275;50.328;8.720;2023-05-21T05:20:45;9.63;;;8.73;;
14381;SDS011;7275;50.328;8.720;2023-05-21T05:23:13;9.93;;;8.93;;
14381;SDS011;7275;50.328;8.720;2023-05-21T05:25:40;10.40;;;9.40;;
14381;SDS011;7275;50.328;8.720;2023-05-21T05:28:08;9.20;;;8.30;;
14381;SDS011;7275;50.328;8.720;2023-05-21T05:30:36;10.00;;;9.10;;
14381;SDS011;7275;50.328;8.720;2023-05-21T05:33:03;9.57;;;8.57;;
14381;SDS011;7275;50.328;8.720;2023-05-21T05:35:31;9.87;;;8.87;;
14381;SDS011;7275;50.328;8.720;2023-05-21T05:38:00;9.63;;;8.63;;
14381;SDS011;7275;50.328;8.720;2023-05-21T05:40:28;9.77;;;8.87;;
14381;SDS011;7275;50.328;8.720;2023-05-21T05:42:55;9.67;;;8.77;;
14381;SDS011;7275;50.328;8.720;2023-05-21T05:45:23;10.23;;;9.13;;
14381;SDS011;7275;50.328;8.720;2023-05-21T05:47:51;10.20;;;9.20;;
14381;SDS011;7275;50.328;8.720;2023-05-21T05:50:19;10.27;;;9.17;;
14381;SDS011;7275;50.328;8.720;2023-05-21T05:52:47;11.03;;;9.70;;
14381;SDS011;7275;50.328;8.720;2023-05-21T05:55:16;10.20;;;9.20;;
14381;SDS011;7275;50.328;8.720;2023-05-21T05:57:43;9.70;;;8.70;;
14381;SDS011;7275;50.328;8.720;2023-05-21T06:00:11;10.50;;;9.40;;
14381;SDS011;7275;50.328;8.720;2023-05-21T06:02:40;9.90;;;9.00;;
14381;SDS011;7275;50.328;8.720;2023-05-21T06:05:08;10.40;;;9.40;;
14381;SDS011;7275;50.328;8.720;2023-05-21T06:07:36;9.83;;;8.93;;
14381;SDS011;7275;50.328;8.720;2023-05-21T06:10:05;10.27;;;9.27;;
14381;SDS011;7275;50.328;8.720;2023-05-21T06:12:34;10.40;;;9.40;;
14381;SDS011;7275;50.328;8.720;2023-05-21T06:15:02;9.83;;;8.90;;
14381;SDS011;7275;50.328;8.720;2023-05-21T06:17:30;9.77;;;8.83;;
14381;SDS011;7275;50.328;8.720;2023-05-21T06:19:57;10.17;;;9.17;;
14381;SDS011;7275;50.328;8.720;2023-05-21T06:22:25;9.90;;;8.90;;
14381;SDS011;7275;50.328;8.720;2023-05-21T06:24:53;10.20;;;9.20;;
14381;SDS011;7275;50.328;8.720;2023-05-21T06:27:20;9.00;;;8.10;;
14381;SDS011;7275;50.328;8.720;2023-05-21T06:29:49;9.80;;;8.73;;
14381;SDS011;7275;50.328;8.720;2023-05-21T06:32:16;9.33;;;8.43;;
14381;SDS011;7275;50.328;8.720;2023-05-21T06:34:47;9.50;;;8.50;;
14381;SDS011;7275;50.328;8.720;2023-05-21T06:37:17;9.67;;;8.77;;
14381;SDS011;7275;50.328;8.720;2023-05-21T06:39:45;9.50;;;8.63;;
14381;SDS011;7275;50.328;8.720;2023-05-21T06:42:13;10.20;;;9.20;;
14381;SDS011;7275;50.328;8.720;2023-05-21T06:44:41;9.37;;;8.47;;
14381;SDS011;7275;50.328;8.720;2023-05-21T06:47:10;9.73;;;8.80;;
14381;SDS011;7275;50.328;8.720;2023-05-21T06:49:37;10.37;;;9.37;;
14381;SDS011;7275;50.328;8.720;2023-05-21T06:52:05;9.27;;;8.47;;
14381;SDS011;7275;50.328;8.720;2023-05-21T06:54:33;9.73;;;8.83;;
14381;SDS011;7275;50.328;8.720;2023-05-21T06:57:00;9.70;;;8.77;;
14381;SDS011;7275;50.328;8.720;2023-05-21T06:59:28;9.97;;;9.07;;
14381;SDS011;7275;50.328;8.720;2023-05-21T07:01:56;9.93;;;8.93;;
14381;SDS011;7275;50.328;8.720;2023-05-21T07:04:25;10.43;;;9.43;;
14381;SDS011;7275;50.328;8.720;2023-05-21T07:06:53;10.17;;;9.10;;
14381;SDS011;7275;50.328;8.720;2023-05-21T07:09:20;10.00;;;9.00;;
14381;SDS011;7275;50.328;8.720;2023-05-21T07:11:48;9.90;;;9.00;;
14381;SDS011;7275;50.328;8.720;2023-05-21T07:14:18;9.07;;;8.17;;
14381;SDS011;7275;50.328;8.720;2023-05-21T07:16:45;9.57;;;8.67;;
14381;SDS011;7275;50.328;8.720;2023-05-21T07:19:13;9.30;;;8.43;;
14381;SDS011;7275;50.328;8.720;2023-05-21T07:21:42;10.10;;;9.20;;
14381;SDS011;7275;50.328;8.720;2023-05-21T07:24:10;9.10;;;8.20;;
14381;SDS011;7275;50.328;8.720;2023-05-21T07:26:38;9.53;;;8.67;;
14381;SDS011;7275;50.328;8.720;2023-05-21T07:29:05;9.23;;;8.43;;
14381;SDS011;7275;50.328;8.720;2023-05-21T07:31:33;9.27;;;8.43;;
14381;SDS011;7275;50.328;8.720;2023-05-21T07:34:00;10.23;;;8.60;;
14381;SDS011;7275;50.328;8.720;2023-05-21T07:36:28;9.70;;;8.70;;
14381;SDS011;7275;50.328;8.720;2023-05-21T07:38:59;9.63;;;8.73;;
14381;SDS011;7275;50.328;8.720;2023-05-21T07:41:27;9.63;;;8.73;;
14381;SDS011;7275;50.328;8.720;2023-05-21T07:43:55;9.15;;;8.25;;
14381;SDS011;7275;50.328;8.720;2023-05-21T07:46:23;9.07;;;8.27;;
14381;SDS011;7275;50.328;8.720;2023-05-21T07:48:50;9.50;;;8.50;;
14381;SDS011;7275;50.328;8.720;2023-05-21T07:51:18;9.93;;;8.98;;
14381;SDS011;7275;50.328;8.720;2023-05-21T07:53:46;9.40;;;8.40;;
14381;SDS011;7275;50.328;8.720;2023-05-21T07:56:15;9.45;;;8.65;;
14381;SDS011;7275;50.328;8.720;2023-05-21T07:58:42;8.90;;;8.10;;
14381;SDS011;7275;50.328;8.720;2023-05-21T08:01:11;8.35;;;7.55;;
14381;SDS011;7275;50.328;8.720;2023-05-21T08:03:38;9.52;;;8.63;;
14381;SDS011;7275;50.328;8.720;2023-05-21T08:06:06;9.40;;;8.55;;
14381;SDS011;7275;50.328;8.720;2023-05-21T08:08:34;9.85;;;8.95;;
14381;SDS011;7275;50.328;8.720;2023-05-21T08:11:01;9.48;;;8.60;;
14381;SDS011;7275;50.328;8.720;2023-05-21T08:13:30;9.13;;;8.23;;
14381;SDS011;7275;50.328;8.720;2023-05-21T08:15:58;9.55;;;8.65;;
14381;SDS011;7275;50.328;8.720;2023-05-21T08:18:25;8.68;;;7.88;;
14381;SDS011;7275;50.328;8.720;2023-05-21T08:20:53;9.45;;;8.52;;
14381;SDS011;7275;50.328;8.720;2023-05-21T08:23:21;9.57;;;8.57;;
14381;SDS011;7275;50.328;8.720;2023-05-21T08:25:49;9.45;;;8.45;;
14381;SDS011;7275;50.328;8.720;2023-05-21T08:28:18;9.85;;;8.93;;
14381;SDS011;7275;50.328;8.720;2023-05-21T08:30:49;9.07;;;8.27;;
14381;SDS011;7275;50.328;8.720;2023-05-21T08:33:17;8.77;;;8.02;;
14381;SDS011;7275;50.328;8.720;2023-05-21T08:35:46;9.88;;;8.98;;
14381;SDS011;7275;50.328;8.720;2023-05-21T08:38:14;10.27;;;9.20;;
14381;SDS011;7275;50.328;8.720;2023-05-21T08:40:44;9.25;;;8.35;;
14381;SDS011;7275;50.328;8.720;2023-05-21T08:43:12;9.45;;;8.45;;
14381;SDS011;7275;50.328;8.720;2023-05-21T08:45:43;9.23;;;8.43;;
14381;SDS011;7275;50.328;8.720;2023-05-21T08:48:15;9.10;;;8.30;;
14381;SDS011;7275;50.328;8.720;2023-05-21T08:50:42;9.32;;;8.50;;
14381;SDS011;7275;50.328;8.720;2023-05-21T08:53:11;9.30;;;8.50;;
14381;SDS011;7275;50.328;8.720;2023-05-21T08:55:53;9.13;;;8.20;;
14381;SDS011;7275;50.328;8.720;2023-05-21T08:58:22;9.38;;;8.57;;
14381;SDS011;7275;50.328;8.720;2023-05-21T09:00:50;8.70;;;7.90;;
14381;SDS011;7275;50.328;8.720;2023-05-21T09:03:19;9.00;;;8.20;;
14381;SDS011;7275;50.328;8.720;2023-05-21T09:05:47;8.70;;;8.00;;
14381;SDS011;7275;50.328;8.720;2023-05-21T09:08:17;9.30;;;8.40;;
14381;SDS011;7275;50.328;8.720;2023-05-21T09:10:47;8.95;;;7.95;;
14381;SDS011;7275;50.328;8.720;2023-05-21T09:13:16;8.95;;;8.13;;
14381;SDS011;7275;50.328;8.720;2023-05-21T09:15:45;8.88;;;8.07;;
14381;SDS011;7275;50.328;8.720;2023-05-21T09:18:13;9.18;;;8.38;;
14381;SDS011;7275;50.328;8.720;2023-05-21T09:20:43;8.82;;;7.97;;
14381;SDS011;7275;50.328;8.720;2023-05-21T09:23:11;9.23;;;8.43;;
14381;SDS011;7275;50.328;8.720;2023-05-21T09:25:44;8.90;;;8.10;;
14381;SDS011;7275;50.328;8.720;2023-05-21T09:28:12;9.15;;;8.35;;
14381;SDS011;7275;50.328;8.720;2023-05-21T09:30:45;7.85;;;7.07;;
14381;SDS011;7275;50.328;8.720;2023-05-21T09:33:23;8.98;;;8.13;;
14381;SDS011;7275;50.328;8.720;2023-05-21T09:35:52;8.30;;;7.60;;
14381;SDS011;7275;50.328;8.720;2023-05-21T09:38:20;8.52;;;7.72;;
14381;SDS011;7275;50.328;8.720;2023-05-21T09:40:48;8.57;;;7.68;;
14381;SDS011;7275;50.328;8.720;2023-05-21T09:43:16;8.30;;;7.50;;
14381;SDS011;7275;50.328;8.720;2023-05-21T09:45:50;8.20;;;7.40;;
14381;SDS011;7275;50.328;8.720;2023-05-21T09:48:31;7.22;;;6.57;;
14381;SDS011;7275;50.328;8.720;2023-05-21T09:51:10;7.93;;;7.22;;
14381;SDS011;7275;50.328;8.720;2023-05-21T09:53:43;7.97;;;7.25;;
14381;SDS011;7275;50.328;8.720;2023-05-21T09:56:14;7.43;;;6.82;;
14381;SDS011;7275;50.328;8.720;2023-05-21T09:58:43;7.68;;;6.97;;
14381;SDS011;7275;50.328;8.720;2023-05-21T10:01:11;7.78;;;7.00;;
14381;SDS011;7275;50.328;8.720;2023-05-21T10:03:39;7.82;;;7.00;;
14381;SDS011;7275;50.328;8.720;2023-05-21T10:06:10;7.57;;;6.78;;
14381;SDS011;7275;50.328;8.720;2023-05-21T10:08:41;7.60;;;7.00;;
14381;SDS011;7275;50.328;8.720;2023-05-21T10:11:11;7.38;;;6.78;;
14381;SDS011;7275;50.328;8.720;2023-05-21T10:13:42;8.63;;;6.68;;
14381;SDS011;7275;50.328;8.720;2023-05-21T10:16:13;7.60;;;6.97;;
14381;SDS011;7275;50.328;8.720;2023-05-21T10:18:41;7.32;;;6.70;;
14381;SDS011;7275;50.328;8.720;2023-05-21T10:21:13;7.70;;;7.00;;
14381;SDS011;7275;50.328;8.720;2023-05-21T10:23:41;7.22;;;6.63;;
14381;SDS011;7275;50.328;8.720;2023-05-21T10:26:10;7.07;;;6.47;;
14381;SDS011;7275;50.328;8.720;2023-05-21T10:28:39;6.95;;;6.35;;
14381;SDS011;7275;50.328;8.720;2023-05-21T10:31:07;7.43;;;6.38;;
14381;SDS011;7275;50.328;8.720;2023-05-21T10:33:35;6.82;;;6.22;;
14381;SDS011;7275;50.328;8.720;2023-05-21T10:36:04;7.32;;;6.63;;
14381;SDS011;7275;50.328;8.720;2023-05-21T10:38:33;7.13;;;6.43;;
14381;SDS011;7275;50.328;8.720;2023-05-21T10:41:02;7.13;;;6.53;;
14381;SDS011;7275;50.328;8.720;2023-05-21T10:43:37;7.30;;;6.70;;
14381;SDS011;7275;50.328;8.720;2023-05-21T10:46:18;6.28;;;5.78;;
14381;SDS011;7275;50.328;8.720;2023-05-21T10:49:01;7.22;;;6.63;;
14381;SDS011;7275;50.328;8.720;2023-05-21T10:51:44;6.63;;;6.03;;
14381;SDS011;7275;50.328;8.720;2023-05-21T10:54:30;6.38;;;5.88;;
14381;SDS011;7275;50.328;8.720;2023-05-21T10:57:21;6.40;;;5.80;;
14381;SDS011;7275;50.328;8.720;2023-05-21T11:00:01;7.00;;;6.40;;
14381;SDS011;7275;50.328;8.720;2023-05-21T11:02:30;6.63;;;5.93;;
14381;SDS011;7275;50.328;8.720;2023-05-21T11:04:58;6.55;;;5.95;;
14381;SDS011;7275;50.328;8.720;2023-05-21T11:13:11;5.65;;;5.15;;
14381;SDS011;7275;50.328;8.720;2023-05-21T11:21:27;4.85;;;4.45;;
14381;SDS011;7275;50.328;8.720;2023-05-21T11:23:58;5.20;;;4.80;;
14381;SDS011;7275;50.328;8.720;2023-05-21T11:26:31;5.10;;;4.70;;
14381;SDS011;7275;50.328;8.720;2023-05-21T11:29:39;5.25;;;4.85;;
14381;SDS011;7275;50.328;8.720;2023-05-21T11:32:09;5.10;;;4.70;;
14381;SDS011;7275;50.328;8.720;2023-05-21T11:34:39;4.85;;;4.45;;
14381;SDS011;7275;50.328;8.720;2023-05-21T11:37:25;4.78;;;4.38;;
14381;SDS011;7275;50.328;8.720;2023-05-21T11:40:15;5.20;;;4.80;;
14381;SDS011;7275;50.328;8.720;2023-05-21T11:42:48;5.93;;;5.00;;
14381;SDS011;7275;50.328;8.720;2023-05-21T11:45:18;5.50;;;5.00;;
14381;SDS011;7275;50.328;8.720;2023-05-21T11:47:46;5.10;;;4.70;;
14381;SDS011;7275;50.328;8.720;2023-05-21T11:50:14;5.25;;;4.75;;
14381;SDS011;7275;50.328;8.720;2023-05-21T11:52:43;5.65;;;5.07;;
14381;SDS011;7275;50.328;8.720;2023-05-21T11:55:11;4.85;;;4.45;;
14381;SDS011;7275;50.328;8.720;2023-05-21T11:57:41;4.90;;;4.50;;
14381;SDS011;7275;50.328;8.720;2023-05-21T12:00:15;5.50;;;4.60;;
14381;SDS011;7275;50.328;8.720;2023-05-21T12:02:44;4.97;;;4.55;;
14381;SDS011;7275;50.328;8.720;2023-05-21T12:05:14;5.25;;;4.80;;
14381;SDS011;7275;50.328;8.720;2023-05-21T12:07:44;5.25;;;4.85;;
14381;SDS011;7275;50.328;8.720;2023-05-21T12:10:15;5.22;;;4.72;;
14381;SDS011;7275;50.328;8.720;2023-05-21T12:12:46;5.03;;;4.60;;
14381;SDS011;7275;50.328;8.720;2023-05-21T12:15:24;5.22;;;4.82;;
14381;SDS011;7275;50.328;8.720;2023-05-21T12:17:53;5.28;;;4.78;;
14381;SDS011;7275;50.328;8.720;2023-05-21T12:20:22;5.00;;;4.60;;
14381;SDS011;7275;50.328;8.720;2023-05-21T12:22:52;5.28;;;4.78;;
14381;SDS011;7275;50.328;8.720;2023-05-21T12:25:19;5.70;;;5.20;;
14381;SDS011;7275;50.328;8.720;2023-05-21T12:27:47;5.43;;;4.93;;
14381;SDS011;7275;50.328;8.720;2023-05-21T12:30:17;5.45;;;5.05;;
14381;SDS011;7275;50.328;8.720;2023-05-21T12:32:47;5.05;;;4.60;;
14381;SDS011;7275;50.328;8.720;2023-05-21T12:35:21;4.80;;;4.40;;
14381;SDS011;7275;50.328;8.720;2023-05-21T12:37:50;5.25;;;4.75;;
14381;SDS011;7275;50.328;8.720;2023-05-21T12:40:18;5.93;;;5.43;;
14381;SDS011;7275;50.328;8.720;2023-05-21T12:42:46;5.55;;;5.10;;
14381;SDS011;7275;50.328;8.720;2023-05-21T12:45:14;5.32;;;4.82;;
14381;SDS011;7275;50.328;8.720;2023-05-21T12:47:47;5.28;;;4.85;;
14381;SDS011;7275;50.328;8.720;2023-05-21T12:50:21;5.63;;;5.13;;
14381;SDS011;7275;50.328;8.720;2023-05-21T12:52:48;5.75;;;5.10;;
14381;SDS011;7275;50.328;8.720;2023-05-21T12:55:20;6.32;;;5.22;;
14381;SDS011;7275;50.328;8.720;2023-05-21T12:57:49;5.35;;;4.85;;
14381;SDS011;7275;50.328;8.720;2023-05-21T13:00:22;5.40;;;4.90;;
14381;SDS011;7275;50.328;8.720;2023-05-21T13:02:51;5.50;;;5.10;;
14381;SDS011;7275;50.328;8.720;2023-05-21T13:05:19;5.35;;;4.95;;
14381;SDS011;7275;50.328;8.720;2023-05-21T13:07:46;5.47;;;4.97;;
14381;SDS011;7275;50.328;8.720;2023-05-21T13:10:16;4.95;;;4.55;;
14381;SDS011;7275;50.328;8.720;2023-05-21T13:12:45;5.35;;;4.90;;
14381;SDS011;7275;50.328;8.720;2023-05-21T13:15:12;5.10;;;4.70;;
14381;SDS011;7275;50.328;8.720;2023-05-21T13:17:40;5.20;;;4.80;;
14381;SDS011;7275;50.328;8.720;2023-05-21T13:20:10;5.18;;;4.78;;
14381;SDS011;7275;50.328;8.720;2023-05-21T13:22:39;5.20;;;4.75;;
14381;SDS011;7275;50.328;8.720;2023-05-21T13:25:08;5.05;;;4.60;;
14381;SDS011;7275;50.328;8.720;2023-05-21T13:27:36;5.40;;;5.00;;
14381;SDS011;7275;50.328;8.720;2023-05-21T13:30:04;5.68;;;5.22;;
14381;SDS011;7275;50.328;8.720;2023-05-21T13:32:33;5.03;;;4.53;;
14381;SDS011;7275;50.328;8.720;2023-05-21T13:35:01;4.90;;;4.50;;
14381;SDS011;7275;50.328;8.720;2023-05-21T13:37:30;5.43;;;4.93;;
14381;SDS011;7275;50.328;8.720;2023-05-21T13:39:58;5.10;;;4.70;;
14381;SDS011;7275;50.328;8.720;2023-05-21T13:42:26;5.00;;;4.57;;
14381;SDS011;7275;50.328;8.720;2023-05-21T13:44:53;5.40;;;5.00;;
14381;SDS011;7275;50.328;8.720;2023-05-21T13:47:21;5.30;;;4.90;;
14381;SDS011;7275;50.328;8.720;2023-05-21T13:49:48;5.15;;;4.68;;
14381;SDS011;7275;50.328;8.720;2023-05-21T13:52:16;5.05;;;4.60;;
14381;SDS011;7275;50.328;8.720;2023-05-21T13:54:45;4.82;;;4.45;;
14381;SDS011;7275;50.328;8.720;2023-05-21T13:57:13;5.10;;;4.28;;
14381;SDS011;7275;50.328;8.720;2023-05-21T13:59:41;4.43;;;4.10;;
14381;SDS011;7275;50.328;8.720;2023-05-21T14:02:08;5.10;;;4.70;;
14381;SDS011;7275;50.328;8.720;2023-05-21T14:04:37;4.70;;;4.30;;
14381;SDS011;7275;50.328;8.720;2023-05-21T14:07:05;4.93;;;4.53;;
14381;SDS011;7275;50.328;8.720;2023-05-21T14:09:33;5.03;;;4.53;;
14381;SDS011;7275;50.328;8.720;2023-05-21T14:12:02;4.82;;;4.43;;
14381;SDS011;7275;50.328;8.720;2023-05-21T14:14:32;4.63;;;4.25;;
14381;SDS011;7275;50.328;8.720;2023-05-21T14:16:59;5.00;;;4.60;;
14381;SDS011;7275;50.328;8.720;2023-05-21T14:19:27;4.75;;;4.35;;
14381;SDS011;7275;50.328;8.720;2023-05-21T14:21:55;4.80;;;4.40;;
14381;SDS011;7275;50.328;8.720;2023-05-21T14:24:24;4.97;;;4.57;;
14381;SDS011;7275;50.328;8.720;2023-05-21T14:26:52;4.75;;;4.35;;
14381;SDS011;7275;50.328;8.720;2023-05-21T14:29:21;4.80;;;4.40;;
14381;SDS011;7275;50.328;8.720;2023-05-21T14:31:48;4.68;;;4.28;;
14381;SDS011;7275;50.328;8.720;2023-05-21T14:34:16;5.20;;;4.72;;
14381;SDS011;7275;50.328;8.720;2023-05-21T14:36:44;4.95;;;4.55;;
14381;SDS011;7275;50.328;8.720;2023-05-21T14:39:11;4.78;;;4.38;;
14381;SDS011;7275;50.328;8.720;2023-05-21T14:41:39;5.25;;;4.85;;
14381;SDS011;7275;50.328;8.720;2023-05-21T14:44:06;4.72;;;4.32;;
14381;SDS011;7275;50.328;8.720;2023-05-21T14:46:35;5.13;;;4.40;;
14381;SDS011;7275;50.328;8.720;2023-05-21T14:49:04;5.18;;;4.72;;
14381;SDS011;7275;50.328;8.720;2023-05-21T14:51:32;4.85;;;4.45;;
14381;SDS011;7275;50.328;8.720;2023-05-21T14:53:59;4.97;;;4.57;;
14381;SDS011;7275;50.328;8.720;2023-05-21T14:56:27;5.03;;;4.63;;
14381;SDS011;7275;50.328;8.720;2023-05-21T14:58:54;4.82;;;4.43;;
14381;SDS011;7275;50.328;8.720;2023-05-21T15:01:22;4.70;;;4.30;;
14381;SDS011;7275;50.328;8.720;2023-05-21T15:03:51;4.53;;;4.15;;
14381;SDS011;7275;50.328;8.720;2023-05-21T15:06:21;4.70;;;4.30;;
14381;SDS011;7275;50.328;8.720;2023-05-21T15:08:48;4.72;;;4.32;;
14381;SDS011;7275;50.328;8.720;2023-05-21T15:11:16;4.90;;;4.40;;
14381;SDS011;7275;50.328;8.720;2023-05-21T15:13:43;4.53;;;4.13;;
14381;SDS011;7275;50.328;8.720;2023-05-21T15:16:11;4.18;;;3.88;;
14381;SDS011;7275;50.328;8.720;2023-05-21T15:18:39;4.80;;;4.40;;
14381;SDS011;7275;50.328;8.720;2023-05-21T15:21:08;4.97;;;4.50;;
14381;SDS011;7275;50.328;8.720;2023-05-21T15:23:35;4.45;;;4.07;;